Kezdőlap
METAR-TAF:

METAR-TAF

Repülőterek :

Debreceni nemzetközi repülőtér

Debrecen, Magyarország

földrajzi szélesség: 47-29N, földrajzi hosszúság: 021-36E, magasság: 108 m

Jelenlegi meteorológiai megfigyelések

A jelentés 48 perccel ezelõtt készült, 01:15 UTC
Kelet-északkeleti szél 4 kt
Hőmérséklet 14°C
Páratartalom 72%
Légköri nyomás 1019 hPa
Látótávolság: 9000 m

METAR: LHDC 250115Z AUTO 07004KT 9000 NSC 14/09 Q1019

Idő: 04:03 (02:03 UTC)

Előrejelzés

A jelentés 5 órával és 48 perccel ezelõtt készült, 20:15 UTC
Az előrejelzés 24-én 21 óra UTC és 25-én 06 óra UTC között érvényes
Kelet-délkeleti szél 5 kt
Látótávolság: 9000 m
Valószínűség 30% :
24-én 21 óra UTC és 25-én 06 óra UTC között ideiglenes
Különbözõ irányokból fújó szél 10 kt
Látótávolság: 5000 m
Szórványos felhőzet 4500 lábon, Cumulonimbus.
Szakadozott felhőzet 8000 lábon
záporok

TAF: LHDC 242015Z 2421/2506 11005KT 9000 NSC PROB30 TEMPO 2421/2506 VRB10KT 5000 SHRA SCT045CB BKN080

Meteorológiai megfigyelések és előrejelzések több, mint 4000 repülőtéren (METAR és TAF jelentéseket).

A térképen piros és sárga pontok jelzik az elérhető meteorológiai állomásokat.

Mozgassa az egeret a pont fölött, hogy megjelenjen az állomás neve.

Azután kattintson az időjárási megfigyelések és előrejelzések megtekintéséhez.

A térkép megváltoztatása: kattintson a fekete keresztel jelölt zöld gombra ráközelítéshez, a vonallal jelölt zöld gombra távolításhoz, vagy a zöld nyilakra a szomszédos térképek eléréséhez.


METAR-TAF: